You are listening to:
ZNY New York Center Sector 27 - Harrisburg, Pennsylvania, United States

KMDT 041756Z 28009KT 10SM BKN250 04/M05 A3021 RMK AO2 SLP232 T00441050 10050 21028 56021

If stream doesn't start automatically press the play button
If stream stops then reload player then press play